CMA CGM Homere — MQBL6 — position and weather

sailwx.info

Track history (hours):
 
Tides and Currents Weather Stations Pressure Air Temp Water Temp Dewpoint Dewpoint Depression Visibility Wind Speed Wind Dir Waves Ship Positions

CMA CGM Homere

Last reported at 2015-Aug-21 12:32 UTC. Time now 2015-Aug-28 14:51 UTC.
Position N 17°28' W 063°04'.

Length 170 m; draft 8.1 m.

Type: Ship (hazmat cat A). MMSI: 235052314.

Date/timePositionNaut miles runAvg speedWind from/ knotsBaromVisibWave heightAir tempDewpointWater temp
2015-Aug-21 12:32N 17°28' W 063°04'1818.2
2015-Aug-21 11:33N 17°45' W 063°05'1515.0
2015-Aug-21 10:33N 18°00' W 063°03'1 0.0
2015-Aug-20 17:31N 18°00' W 063°03'3 3.4
2015-Aug-20 16:33N 17°58' W 063°05'  
2015-Aug-16 02:30N 37°53' W 032°19'2518.7
2015-Aug-16 01:09N 38°05' W 031°51'1618.7
2015-Aug-16 00:19N 38°12' W 031°33'1418.6
2015-Aug-15 23:33N 38°18' W 031°17'1918.8
2015-Aug-15 22:33N 38°27' W 030°55'1818.5
2015-Aug-15 21:33N 38°34' W 030°34'1918.6
2015-Aug-15 20:34N 38°43' W 030°13'1918.7
2015-Aug-15 19:34N 38°51' W 029°51'1818.5
2015-Aug-15 18:34N 38°59' W 029°30'1818.4
2015-Aug-15 17:34N 39°07' W 029°09'1818.4
2015-Aug-15 16:33N 39°15' W 028°47'1818.4
2015-Aug-15 15:34N 39°23' W 028°26'1817.9
2015-Aug-15 14:34N 39°31' W 028°05'1818.1
2015-Aug-15 13:33N 39°39' W 027°43'1818.0
2015-Aug-15 12:34N 39°46' W 027°22'1818.2
2015-Aug-15 11:34N 39°56' W 027°02'1818.2
2015-Aug-15 10:34N 40°07' W 026°43'2718.2
2015-Aug-15 09:04N 40°22' W 026°14'918.1
2015-Aug-15 08:33N 40°28' W 026°04'1817.8
2015-Aug-15 07:34N 40°37' W 025°44'1818.0
2015-Aug-15 06:33N 40°48' W 025°25'1717.4
2015-Aug-15 05:33N 40°58' W 025°06'1717.5
2015-Aug-15 04:33N 41°08' W 024°48'91218.1
2015-Aug-13 02:12N 49°40' W 006°53'14018.1
2015-Aug-12 18:29N 49°58' W 003°18'1816.4
2015-Aug-12 17:24N 50°00' W 002°51'1516.4
2015-Aug-12 16:28N 50°03' W 002°27'3317.4
2015-Aug-12 14:34N 49°56' W 001°37'2119.9
2015-Aug-12 13:30N 49°48' W 001°07'1919.7
2015-Aug-12 12:34N 49°41' W 000°41'1818.3
2015-Aug-12 11:33N 49°33' W 000°15'1413.7
2015-Aug-12 10:33N 49°29' E 000°05'3 3.1
2015-Aug-12 09:31N 49°29' E 000°10'0 0.0
2015-Aug-12 08:33N 49°29' E 000°10'0 0.0
2015-Aug-12 07:33N 49°29' E 000°10'0 0.0
2015-Aug-12 06:33N 49°29' E 000°10'0 0.0
2015-Aug-12 05:33N 49°29' E 000°10'0 0.0
2015-Aug-12 04:33N 49°29' E 000°10'0 0.0
2015-Aug-12 03:33N 49°29' E 000°10'0 0.0
2015-Aug-12 02:33N 49°29' E 000°10'0 0.0
2015-Aug-12 01:33N 49°29' E 000°10'0 0.0
2015-Aug-12 00:33N 49°29' E 000°10'0 0.0
2015-Aug-11 23:33N 49°29' E 000°10'0 0.0
2015-Aug-11 22:33N 49°29' E 000°10'0 0.0
2015-Aug-11 21:33N 49°29' E 000°10'0 0.0
2015-Aug-11 20:33N 49°29' E 000°10'0 0.0
2015-Aug-11 19:33N 49°29' E 000°10'0 0.0
2015-Aug-11 18:33N 49°29' E 000°10'0 0.0
2015-Aug-11 17:33N 49°29' E 000°10'0 0.0
2015-Aug-11 16:33N 49°29' E 000°10'0 0.0
2015-Aug-11 15:33N 49°29' E 000°10'0 0.0
2015-Aug-11 14:33N 49°29' E 000°10'0 0.0
2015-Aug-11 13:33N 49°29' E 000°10'0 0.0
2015-Aug-11 12:33N 49°29' E 000°10'  
Track history (hours):
 
Tides and Currents Weather Stations Pressure Air Temp Water Temp Dewpoint Dewpoint Depression Visibility Wind Speed Wind Dir Waves Ship Positions

CMA CGM Homere

Last reported at 2015-Aug-21 12:32 UTC. Time now 2015-Aug-28 14:51 UTC.
Position N 17°28' W 063°04'.

Length 170 m; draft 8.1 m.

Type: Ship (hazmat cat A). MMSI: 235052314.

Date/timePositionNaut miles runAvg speedWind from/ knotsBaromVisibWave heightAir tempDewpointWater temp
2015-Aug-21 12:32N 17°28' W 063°04'1818.2
2015-Aug-21 11:33N 17°45' W 063°05'1515.0
2015-Aug-21 10:33N 18°00' W 063°03'1 0.0
2015-Aug-20 17:31N 18°00' W 063°03'3 3.4
2015-Aug-20 16:33N 17°58' W 063°05'  
2015-Aug-16 02:30N 37°53' W 032°19'2518.7
2015-Aug-16 01:09N 38°05' W 031°51'1618.7
2015-Aug-16 00:19N 38°12' W 031°33'1418.6
2015-Aug-15 23:33N 38°18' W 031°17'1918.8
2015-Aug-15 22:33N 38°27' W 030°55'1818.5
2015-Aug-15 21:33N 38°34' W 030°34'1918.6
2015-Aug-15 20:34N 38°43' W 030°13'1918.7
2015-Aug-15 19:34N 38°51' W 029°51'1818.5
2015-Aug-15 18:34N 38°59' W 029°30'1818.4
2015-Aug-15 17:34N 39°07' W 029°09'1818.4
2015-Aug-15 16:33N 39°15' W 028°47'1818.4
2015-Aug-15 15:34N 39°23' W 028°26'1817.9
2015-Aug-15 14:34N 39°31' W 028°05'1818.1
2015-Aug-15 13:33N 39°39' W 027°43'1818.0
2015-Aug-15 12:34N 39°46' W 027°22'1818.2
2015-Aug-15 11:34N 39°56' W 027°02'1818.2
2015-Aug-15 10:34N 40°07' W 026°43'2718.2
2015-Aug-15 09:04N 40°22' W 026°14'918.1
2015-Aug-15 08:33N 40°28' W 026°04'1817.8
2015-Aug-15 07:34N 40°37' W 025°44'1818.0
2015-Aug-15 06:33N 40°48' W 025°25'1717.4
2015-Aug-15 05:33N 40°58' W 025°06'1717.5
2015-Aug-15 04:33N 41°08' W 024°48'91218.1
2015-Aug-13 02:12N 49°40' W 006°53'14018.1
2015-Aug-12 18:29N 49°58' W 003°18'1816.4
2015-Aug-12 17:24N 50°00' W 002°51'1516.4
2015-Aug-12 16:28N 50°03' W 002°27'3317.4
2015-Aug-12 14:34N 49°56' W 001°37'2119.9
2015-Aug-12 13:30N 49°48' W 001°07'1919.7
2015-Aug-12 12:34N 49°41' W 000°41'1818.3
2015-Aug-12 11:33N 49°33' W 000°15'1413.7
2015-Aug-12 10:33N 49°29' E 000°05'3 3.1
2015-Aug-12 09:31N 49°29' E 000°10'0 0.0
2015-Aug-12 08:33N 49°29' E 000°10'0 0.0
2015-Aug-12 07:33N 49°29' E 000°10'0 0.0
2015-Aug-12 06:33N 49°29' E 000°10'0 0.0
2015-Aug-12 05:33N 49°29' E 000°10'0 0.0
2015-Aug-12 04:33N 49°29' E 000°10'0 0.0
2015-Aug-12 03:33N 49°29' E 000°10'0 0.0
2015-Aug-12 02:33N 49°29' E 000°10'0 0.0
2015-Aug-12 01:33N 49°29' E 000°10'0 0.0
2015-Aug-12 00:33N 49°29' E 000°10'0 0.0
2015-Aug-11 23:33N 49°29' E 000°10'0 0.0
2015-Aug-11 22:33N 49°29' E 000°10'0 0.0
2015-Aug-11 21:33N 49°29' E 000°10'0 0.0
2015-Aug-11 20:33N 49°29' E 000°10'0 0.0
2015-Aug-11 19:33N 49°29' E 000°10'0 0.0
2015-Aug-11 18:33N 49°29' E 000°10'0 0.0
2015-Aug-11 17:33N 49°29' E 000°10'0 0.0
2015-Aug-11 16:33N 49°29' E 000°10'0 0.0
2015-Aug-11 15:33N 49°29' E 000°10'0 0.0
2015-Aug-11 14:33N 49°29' E 000°10'0 0.0
2015-Aug-11 13:33N 49°29' E 000°10'0 0.0
2015-Aug-11 12:33N 49°29' E 000°10'  

Dump ship's entire track history